createdAt,value
2023-01-27T00:00:33.917Z,83.32
2023-01-27T00:03:00.506Z,83.30
2023-01-27T00:05:27.089Z,83.00
2023-01-27T00:07:53.576Z,83.44
2023-01-27T00:10:20.568Z,83.17
2023-01-27T00:13:06.995Z,83.40
2023-01-27T00:15:35.116Z,82.89
2023-01-27T00:18:02.141Z,83.21
2023-01-27T00:20:47.622Z,83.37
2023-01-27T00:23:35.767Z,82.90
2023-01-27T00:26:06.431Z,83.48
2023-01-27T00:28:37.558Z,83.40
2023-01-27T00:31:06.067Z,82.88
2023-01-27T00:33:32.573Z,83.22
2023-01-27T00:36:01.247Z,83.04
2023-01-27T00:38:29.446Z,82.79
2023-01-27T00:41:14.558Z,82.76
2023-01-27T00:43:41.727Z,83.39
2023-01-27T00:46:08.310Z,83.24
2023-01-27T00:48:35.504Z,83.16
2023-01-27T00:51:02.298Z,82.46
2023-01-27T00:53:29.177Z,82.70
2023-01-27T00:55:55.684Z,82.11
2023-01-27T00:58:22.572Z,81.78
2023-01-27T01:00:49.510Z,82.06
2023-01-27T01:03:16.004Z,82.17
2023-01-27T01:05:42.793Z,82.42
2023-01-27T01:08:09.254Z,82.51
2023-01-27T01:10:38.724Z,82.65
2023-01-27T01:13:08.043Z,82.71
2023-01-27T01:15:39.600Z,82.75
2023-01-27T01:18:06.905Z,82.80
2023-01-27T01:20:40.363Z,83.03
2023-01-27T01:23:07.347Z,82.90
2023-01-27T01:25:34.281Z,83.25
2023-01-27T01:28:01.578Z,83.49
2023-01-27T01:30:28.439Z,83.71
2023-01-27T01:32:55.598Z,83.38
2023-01-27T01:35:24.948Z,83.61
2023-01-27T01:37:52.787Z,83.36
2023-01-27T01:40:20.011Z,83.33
2023-01-27T01:42:55.529Z,83.55
2023-01-27T01:45:36.356Z,83.65
2023-01-27T01:48:09.703Z,83.65
2023-01-27T01:50:39.250Z,83.92
2023-01-27T01:53:07.187Z,83.63
2023-01-27T01:55:34.725Z,83.94
2023-01-27T01:58:02.511Z,83.88
2023-01-27T02:00:29.416Z,84.30
2023-01-27T02:02:56.046Z,83.49
2023-01-27T02:05:28.368Z,83.42
2023-01-27T02:08:19.944Z,83.04
2023-01-27T02:10:46.501Z,82.72
2023-01-27T02:13:12.977Z,82.92
2023-01-27T02:15:40.043Z,82.83
2023-01-27T02:18:07.412Z,82.95
2023-01-27T02:21:00.973Z,83.27
2023-01-27T02:23:48.818Z,82.95
2023-01-27T02:26:25.727Z,82.97
2023-01-27T02:29:07.505Z,83.09
2023-01-27T02:31:34.409Z,82.93
2023-01-27T02:34:09.171Z,83.39
2023-01-27T02:36:42.219Z,83.22
2023-01-27T02:39:12.900Z,83.55
2023-01-27T02:41:58.670Z,84.11
2023-01-27T02:44:25.203Z,84.56
2023-01-27T02:46:51.667Z,84.49
2023-01-27T02:49:18.137Z,85.14
2023-01-27T02:51:44.637Z,85.65
2023-01-27T02:54:11.177Z,85.59
2023-01-27T02:56:37.976Z,85.71
2023-01-27T02:59:04.688Z,84.98
2023-01-27T03:01:32.814Z,84.42
2023-01-27T03:03:59.837Z,84.51
2023-01-27T03:06:26.477Z,84.53
2023-01-27T03:08:52.994Z,84.30
2023-01-27T03:11:39.449Z,84.39
2023-01-27T03:14:09.417Z,84.73
2023-01-27T03:16:54.221Z,84.32
2023-01-27T03:19:20.727Z,84.11
2023-01-27T03:21:51.065Z,84.13
2023-01-27T03:24:17.805Z,84.46
2023-01-27T03:26:44.409Z,84.53
2023-01-27T03:29:29.253Z,84.86
2023-01-27T03:31:55.922Z,84.96
2023-01-27T03:34:22.583Z,85.22
2023-01-27T03:37:07.760Z,85.71
2023-01-27T03:39:52.670Z,86.34
2023-01-27T03:42:37.876Z,86.21
2023-01-27T03:45:23.305Z,86.70
2023-01-27T03:47:49.785Z,87.04
2023-01-27T03:50:19.452Z,87.41
2023-01-27T03:53:03.558Z,87.47
2023-01-27T03:55:31.550Z,87.63
2023-01-27T03:58:06.100Z,88.28
2023-01-27T04:00:33.025Z,88.00
2023-01-27T04:03:18.078Z,88.24
2023-01-27T04:06:03.207Z,88.12
2023-01-27T04:08:29.706Z,88.46
2023-01-27T04:11:20.961Z,88.99
2023-01-27T04:13:47.452Z,89.55
2023-01-27T04:16:13.949Z,89.76
2023-01-27T04:18:40.428Z,89.41
2023-01-27T04:21:06.880Z,90.03
2023-01-27T04:23:33.413Z,90.23
2023-01-27T04:26:00.456Z,90.17
2023-01-27T04:28:43.287Z,89.98
2023-01-27T04:31:10.981Z,90.32
2023-01-27T04:33:37.509Z,90.18
2023-01-27T04:36:04.237Z,90.47
2023-01-27T04:38:30.852Z,91.12
2023-01-27T04:40:57.295Z,90.98
2023-01-27T04:43:23.822Z,90.78
2023-01-27T04:45:50.370Z,91.30
2023-01-27T04:48:16.998Z,91.33
2023-01-27T04:50:43.466Z,91.13
2023-01-27T04:53:10.020Z,91.16
2023-01-27T04:55:36.849Z,91.19
2023-01-27T04:58:04.401Z,91.56
2023-01-27T05:00:31.833Z,91.44
2023-01-27T05:02:58.571Z,91.39
2023-01-27T05:05:25.096Z,91.11
2023-01-27T05:07:51.579Z,91.47
2023-01-27T05:10:18.285Z,91.50
2023-01-27T05:12:44.772Z,91.28
2023-01-27T05:15:11.756Z,91.31
2023-01-27T05:17:38.474Z,91.16
2023-01-27T05:20:05.405Z,91.33
2023-01-27T05:22:31.909Z,91.33
2023-01-27T05:24:58.397Z,91.60
2023-01-27T05:27:25.163Z,92.15
2023-01-27T05:29:51.729Z,92.54
2023-01-27T05:32:18.235Z,91.46
2023-01-27T05:34:44.738Z,91.61
2023-01-27T05:37:11.224Z,91.63
2023-01-27T05:39:37.692Z,90.66
2023-01-27T05:42:04.329Z,90.86
2023-01-27T05:44:30.832Z,89.89
2023-01-27T05:46:57.509Z,90.01
2023-01-27T05:49:23.971Z,90.17
2023-01-27T05:51:50.464Z,90.38
2023-01-27T05:54:16.944Z,89.95
2023-01-27T05:56:43.885Z,89.51
2023-01-27T05:59:11.232Z,90.05
2023-01-27T06:01:38.431Z,89.81
2023-01-27T06:04:05.660Z,88.89
2023-01-27T06:06:33.693Z,89.46
2023-01-27T06:09:00.619Z,89.54
2023-01-27T06:11:27.720Z,89.38
2023-01-27T06:13:55.254Z,88.93
2023-01-27T06:16:22.600Z,88.66
2023-01-27T06:18:49.564Z,89.60
2023-01-27T06:21:17.522Z,89.58
2023-01-27T06:23:44.085Z,89.49
2023-01-27T06:26:16.551Z,89.90
2023-01-27T06:28:43.530Z,89.87
2023-01-27T06:31:22.088Z,89.97
2023-01-27T06:33:49.623Z,89.85
2023-01-27T06:36:18.815Z,89.92
2023-01-27T06:38:45.694Z,89.53
2023-01-27T06:41:12.450Z,89.78
2023-01-27T06:43:38.916Z,89.77
2023-01-27T06:46:06.387Z,89.31
2023-01-27T06:48:33.397Z,89.30
2023-01-27T06:51:00.235Z,89.39
2023-01-27T06:53:26.809Z,89.19
2023-01-27T06:56:01.031Z,89.23
2023-01-27T06:58:28.226Z,89.40
2023-01-27T07:00:55.398Z,88.83
2023-01-27T07:03:22.727Z,88.60
2023-01-27T07:05:49.473Z,88.39
2023-01-27T07:08:16.155Z,88.30
2023-01-27T07:10:42.693Z,88.10
2023-01-27T07:13:11.930Z,87.89
2023-01-27T07:15:39.055Z,87.87
2023-01-27T07:18:06.261Z,87.70
2023-01-27T07:20:34.170Z,87.67
2023-01-27T07:23:03.274Z,87.54
2023-01-27T07:25:31.610Z,87.40
2023-01-27T07:27:59.204Z,87.86
2023-01-27T07:30:26.543Z,87.61
2023-01-27T07:32:55.603Z,87.84
2023-01-27T07:35:23.201Z,88.15
2023-01-27T07:37:49.729Z,88.43
2023-01-27T07:40:16.960Z,88.48
2023-01-27T07:42:43.634Z,88.59
2023-01-27T07:45:10.697Z,88.16
2023-01-27T07:47:37.922Z,88.50
2023-01-27T07:50:05.152Z,88.54
2023-01-27T07:52:31.765Z,88.52
2023-01-27T07:54:58.261Z,88.16
2023-01-27T07:57:24.786Z,88.62
2023-01-27T07:59:55.622Z,88.09
2023-01-27T08:02:26.178Z,87.71
2023-01-27T08:04:53.851Z,87.80
2023-01-27T08:07:21.333Z,87.74
2023-01-27T08:09:47.926Z,88.36
2023-01-27T08:12:14.590Z,88.09
2023-01-27T08:14:41.077Z,87.77
2023-01-27T08:17:07.621Z,88.07
2023-01-27T08:19:34.128Z,88.62
2023-01-27T08:22:00.650Z,87.84
2023-01-27T08:24:27.250Z,87.72
2023-01-27T08:26:53.936Z,87.81
2023-01-27T08:29:20.436Z,87.59
2023-01-27T08:31:46.988Z,87.46
2023-01-27T08:34:13.552Z,87.39
2023-01-27T08:36:45.750Z,87.24
2023-01-27T08:39:12.359Z,87.40
2023-01-27T08:41:38.881Z,87.78
2023-01-27T08:44:05.841Z,87.54
2023-01-27T08:46:32.941Z,88.00
2023-01-27T08:49:01.965Z,88.13
2023-01-27T08:51:28.867Z,87.74
2023-01-27T08:53:55.464Z,87.91
2023-01-27T08:56:22.068Z,87.86
2023-01-27T08:58:48.890Z,87.59
2023-01-27T09:01:15.871Z,87.60
2023-01-27T09:03:42.464Z,87.33
2023-01-27T09:06:11.873Z,87.40
2023-01-27T09:08:39.247Z,87.38
2023-01-27T09:11:11.516Z,87.62
2023-01-27T09:13:38.036Z,87.01
2023-01-27T09:16:04.884Z,86.93
2023-01-27T09:18:31.449Z,87.49
2023-01-27T09:20:58.243Z,86.92
2023-01-27T09:23:24.994Z,86.73
2023-01-27T09:25:51.484Z,86.59
2023-01-27T09:28:18.019Z,86.99
2023-01-27T09:30:48.627Z,87.38
2023-01-27T09:33:15.634Z,87.62
2023-01-27T09:35:47.095Z,87.30
2023-01-27T09:38:18.968Z,87.16
2023-01-27T09:41:18.338Z,87.39
2023-01-27T09:44:18.883Z,87.29
2023-01-27T09:47:02.065Z,87.56
2023-01-27T09:49:41.693Z,87.58
2023-01-27T09:52:46.796Z,87.82
2023-01-27T09:55:35.232Z,87.42
2023-01-27T09:58:27.289Z,87.38
2023-01-27T10:01:18.542Z,87.25
2023-01-27T10:03:58.320Z,87.45
2023-01-27T10:06:43.373Z,87.83
2023-01-27T10:09:38.573Z,87.15
2023-01-27T10:12:31.424Z,87.37
2023-01-27T10:15:19.273Z,87.73
2023-01-27T10:18:07.120Z,87.41
2023-01-27T10:20:47.399Z,87.43
2023-01-27T10:23:51.888Z,87.55
2023-01-27T10:26:43.118Z,87.61
2023-01-27T10:29:46.613Z,87.87
2023-01-27T10:32:42.284Z,87.72
2023-01-27T10:35:16.114Z,87.75
2023-01-27T10:37:55.212Z,87.77
2023-01-27T10:40:24.369Z,87.49
2023-01-27T10:43:13.520Z,87.33
2023-01-27T10:45:52.966Z,87.42
2023-01-27T10:48:43.795Z,87.32
2023-01-27T10:51:17.030Z,87.39
2023-01-27T10:53:59.258Z,87.48
2023-01-27T10:56:53.789Z,87.75
2023-01-27T10:59:50.242Z,87.40
2023-01-27T11:02:50.339Z,87.20
2023-01-27T11:05:32.868Z,87.50
2023-01-27T11:08:06.526Z,87.11
2023-01-27T11:11:01.927Z,86.98
2023-01-27T11:13:31.288Z,86.68
2023-01-27T11:15:59.013Z,86.71
2023-01-27T11:18:33.228Z,86.50
2023-01-27T11:21:05.033Z,86.48
2023-01-27T11:23:35.653Z,86.09
2023-01-27T11:26:23.360Z,86.48
2023-01-27T11:29:27.981Z,86.33
2023-01-27T11:32:05.625Z,86.29
2023-01-27T11:34:43.868Z,86.23
2023-01-27T11:37:22.457Z,85.83
2023-01-27T11:39:48.962Z,85.58
2023-01-27T11:42:16.436Z,85.54
2023-01-27T11:44:44.430Z,85.63
2023-01-27T11:47:23.505Z,85.17
2023-01-27T11:49:52.955Z,85.41
2023-01-27T11:52:22.205Z,84.99
2023-01-27T11:54:56.461Z,84.74
2023-01-27T11:57:25.800Z,84.44
2023-01-27T11:59:59.268Z,84.27
2023-01-27T12:02:47.624Z,83.79
2023-01-27T12:05:21.236Z,83.95
2023-01-27T12:08:02.089Z,83.19
2023-01-27T12:10:44.423Z,83.15
2023-01-27T12:13:20.582Z,82.38
2023-01-27T12:15:53.533Z,82.46
2023-01-27T12:18:20.950Z,82.52
2023-01-27T12:20:56.838Z,82.19
2023-01-27T12:23:48.660Z,82.30
2023-01-27T12:26:15.561Z,81.30
2023-01-27T12:28:50.272Z,80.84
2023-01-27T12:31:19.960Z,81.21
2023-01-27T12:33:58.403Z,81.18
2023-01-27T12:36:25.339Z,80.63
2023-01-27T12:38:56.013Z,80.97
2023-01-27T12:41:27.214Z,80.57
2023-01-27T12:44:40.342Z,80.69
2023-01-27T12:47:36.638Z,80.76
2023-01-27T12:50:25.305Z,80.64
2023-01-27T12:53:03.071Z,80.29
2023-01-27T12:55:32.461Z,80.05
2023-01-27T12:57:59.118Z,80.37
2023-01-27T13:00:26.276Z,80.34
2023-01-27T13:02:58.141Z,79.90
2023-01-27T13:05:25.459Z,79.83
2023-01-27T13:07:53.904Z,80.42
2023-01-27T13:10:22.851Z,80.04
2023-01-27T13:12:56.179Z,79.98
2023-01-27T13:15:29.218Z,79.76
2023-01-27T13:17:57.620Z,80.08
2023-01-27T13:20:30.481Z,80.26
2023-01-27T13:23:15.632Z,79.83
2023-01-27T13:25:52.582Z,80.34
2023-01-27T13:28:25.847Z,80.51
2023-01-27T13:30:57.227Z,80.31
2023-01-27T13:33:57.910Z,80.87
2023-01-27T13:36:53.502Z,80.44
2023-01-27T13:39:47.287Z,79.67
2023-01-27T13:42:21.518Z,79.01
2023-01-27T13:45:05.892Z,77.65
2023-01-27T13:47:53.479Z,77.04
2023-01-27T13:50:26.990Z,76.44
2023-01-27T13:52:56.751Z,76.26
2023-01-27T13:56:02.241Z,76.22
2023-01-27T13:58:50.860Z,76.70
2023-01-27T14:01:29.529Z,77.08
2023-01-27T14:04:20.694Z,77.21
2023-01-27T14:07:00.366Z,77.25
2023-01-27T14:09:40.736Z,77.61
2023-01-27T14:12:15.389Z,77.98
2023-01-27T14:14:58.843Z,78.47
2023-01-27T14:17:42.526Z,78.70
2023-01-27T14:20:11.920Z,78.41
2023-01-27T14:22:52.384Z,78.80
2023-01-27T14:25:31.741Z,78.63
2023-01-27T14:28:08.282Z,78.92
2023-01-27T14:30:51.264Z,78.99
2023-01-27T14:33:35.502Z,79.21
2023-01-27T14:36:24.128Z,78.68
2023-01-27T14:39:26.514Z,79.09
2023-01-27T14:45:05.953Z,78.72
2023-01-27T14:47:42.107Z,78.80
2023-01-27T14:50:28.598Z,78.62
2023-01-27T14:52:57.803Z,78.78
2023-01-27T14:55:36.728Z,78.83
2023-01-27T14:58:33.848Z,78.67
2023-01-27T15:01:03.372Z,78.66
2023-01-27T15:03:31.390Z,78.50
2023-01-27T15:06:03.456Z,78.47
2023-01-27T15:08:55.899Z,78.80
2023-01-27T15:11:31.569Z,79.16
2023-01-27T15:14:19.887Z,78.72
2023-01-27T15:16:58.267Z,79.16
2023-01-27T15:19:25.062Z,79.09
2023-01-27T15:22:27.201Z,78.78
2023-01-27T15:25:33.434Z,79.30
2023-01-27T15:28:01.950Z,79.07
2023-01-27T15:30:34.572Z,79.33
2023-01-27T15:33:01.620Z,79.44
2023-01-27T15:35:36.861Z,79.35
2023-01-27T15:38:08.284Z,79.64
2023-01-27T15:40:57.090Z,79.23
2023-01-27T15:43:25.412Z,79.58
2023-01-27T15:45:56.789Z,79.42
2023-01-27T15:48:28.531Z,79.12
2023-01-27T15:51:00.831Z,79.48
2023-01-27T15:53:37.056Z,79.45
2023-01-27T15:56:04.347Z,79.17
2023-01-27T15:58:51.099Z,79.03
2023-01-27T16:01:30.587Z,79.16
2023-01-27T16:04:23.396Z,79.01
2023-01-27T16:06:53.745Z,78.56
2023-01-27T16:09:46.543Z,78.83
2023-01-27T16:12:27.072Z,78.49
2023-01-27T16:15:15.722Z,78.50
2023-01-27T16:18:22.646Z,78.61
2023-01-27T16:21:01.381Z,78.62
2023-01-27T16:23:52.962Z,78.95
2023-01-27T16:26:25.496Z,78.87
2023-01-27T16:28:57.542Z,78.73
2023-01-27T16:31:30.879Z,78.81
2023-01-27T16:34:00.185Z,78.63
2023-01-27T16:36:31.713Z,78.99
2023-01-27T16:39:23.433Z,79.11
2023-01-27T16:41:56.633Z,78.55
2023-01-27T16:44:30.236Z,79.13
2023-01-27T16:47:14.959Z,78.94
2023-01-27T16:49:54.544Z,79.31
2023-01-27T16:55:29.362Z,78.91
2023-01-27T16:57:57.633Z,79.34
2023-01-27T17:00:31.894Z,79.43
2023-01-27T17:03:09.985Z,78.60
2023-01-27T17:05:36.631Z,78.73
2023-01-27T17:08:05.791Z,78.90
2023-01-27T17:10:35.122Z,79.05
2023-01-27T17:13:02.065Z,79.17
2023-01-27T17:15:35.518Z,79.53
2023-01-27T17:18:08.916Z,79.30
2023-01-27T17:20:40.888Z,79.27
2023-01-27T17:23:07.642Z,79.21
2023-01-27T17:25:37.548Z,79.01
2023-01-27T17:28:10.634Z,79.36
2023-01-27T17:30:40.085Z,79.65
2023-01-27T17:33:14.189Z,79.50
2023-01-27T17:35:41.254Z,79.40
2023-01-27T17:38:16.340Z,79.20
2023-01-27T17:40:45.712Z,79.06
2023-01-27T17:43:33.335Z,78.98
2023-01-27T17:46:14.363Z,78.54
2023-01-27T17:49:05.678Z,78.69
2023-01-27T17:51:48.834Z,78.38
2023-01-27T17:54:24.721Z,78.86
2023-01-27T17:56:59.726Z,78.96
2023-01-27T17:59:29.711Z,78.65
2023-01-27T18:02:00.907Z,78.96
2023-01-27T18:04:27.675Z,78.50
2023-01-27T18:06:54.557Z,78.94
2023-01-27T18:09:26.897Z,78.56
2023-01-27T18:11:56.897Z,79.18
2023-01-27T18:14:24.010Z,79.02
2023-01-27T18:17:01.241Z,78.73
2023-01-27T18:19:29.068Z,78.63
2023-01-27T18:22:15.287Z,78.75
2023-01-27T18:24:52.191Z,78.19
2023-01-27T18:27:33.568Z,78.22
2023-01-27T18:30:06.001Z,78.21
2023-01-27T18:32:44.256Z,78.55
2023-01-27T18:35:36.998Z,78.32
2023-01-27T18:38:19.475Z,77.71
2023-01-27T18:40:46.485Z,77.86
2023-01-27T18:43:13.312Z,77.96
2023-01-27T18:45:43.086Z,77.86
2023-01-27T18:48:13.066Z,78.17
2023-01-27T18:50:45.527Z,78.00
2023-01-27T18:53:15.457Z,78.57
2023-01-27T18:55:42.320Z,78.70
2023-01-27T18:58:12.666Z,78.60
2023-01-27T19:00:42.669Z,78.51
2023-01-27T19:03:15.842Z,78.53
2023-01-27T19:05:42.323Z,78.34
2023-01-27T19:08:14.408Z,78.18
2023-01-27T19:10:41.185Z,78.31
2023-01-27T19:13:09.530Z,78.51
2023-01-27T19:15:39.849Z,78.34
2023-01-27T19:18:15.092Z,78.53
2023-01-27T19:20:41.798Z,78.13
2023-01-27T19:23:14.266Z,78.77
2023-01-27T19:25:41.539Z,78.35
2023-01-27T19:28:15.427Z,78.01
2023-01-27T19:30:41.965Z,78.39
2023-01-27T19:33:23.194Z,77.99
2023-01-27T19:35:53.747Z,77.85
2023-01-27T19:38:21.508Z,77.78
2023-01-27T19:40:48.028Z,77.16
2023-01-27T19:43:15.422Z,77.37
2023-01-27T19:45:44.148Z,77.15
2023-01-27T19:48:15.041Z,77.00
2023-01-27T19:50:41.855Z,76.54
2023-01-27T19:53:08.778Z,76.26
2023-01-27T19:55:36.778Z,75.58
2023-01-27T19:58:03.650Z,75.88
2023-01-27T20:00:33.577Z,75.54
2023-01-27T20:03:00.649Z,74.86
2023-01-27T20:05:28.799Z,74.86
2023-01-27T20:07:56.879Z,74.77
2023-01-27T20:10:32.590Z,74.55
2023-01-27T20:13:03.941Z,74.45
2023-01-27T20:15:32.890Z,74.53
2023-01-27T20:17:59.637Z,74.86
2023-01-27T20:20:27.298Z,75.09
2023-01-27T20:22:54.203Z,74.91
2023-01-27T20:25:23.315Z,74.98
2023-01-27T20:28:00.913Z,74.99
2023-01-27T20:30:32.231Z,75.27
2023-01-27T20:33:00.152Z,75.48
2023-01-27T20:35:27.412Z,75.53
2023-01-27T20:37:54.593Z,75.58
2023-01-27T20:40:24.804Z,75.73
2023-01-27T20:42:52.096Z,75.60
2023-01-27T20:45:19.239Z,75.93
2023-01-27T20:47:50.499Z,75.90
2023-01-27T20:50:17.396Z,75.47
2023-01-27T20:52:44.021Z,75.91
2023-01-27T20:55:12.251Z,76.30
2023-01-27T20:57:38.938Z,76.50
2023-01-27T21:00:06.107Z,76.41
2023-01-27T21:02:32.874Z,76.42
2023-01-27T21:04:59.759Z,76.72
2023-01-27T21:07:26.579Z,76.62
2023-01-27T21:09:55.895Z,77.26
2023-01-27T21:12:22.605Z,76.60
2023-01-27T21:14:49.088Z,76.81
2023-01-27T21:17:15.611Z,77.23
2023-01-27T21:19:42.130Z,77.25
2023-01-27T21:22:08.681Z,76.72
2023-01-27T21:24:35.686Z,77.18
2023-01-27T21:27:03.885Z,76.84
2023-01-27T21:29:30.994Z,76.53
2023-01-27T21:31:57.528Z,76.93
2023-01-27T21:34:24.176Z,76.72
2023-01-27T21:36:50.836Z,76.42
2023-01-27T21:39:17.391Z,76.29
2023-01-27T21:41:52.615Z,76.64
2023-01-27T21:44:42.663Z,76.87
2023-01-27T21:47:12.300Z,76.88
2023-01-27T21:49:59.143Z,76.98
2023-01-27T21:52:29.230Z,76.73
2023-01-27T21:54:55.714Z,76.43
2023-01-27T21:57:22.223Z,76.10
2023-01-27T21:59:48.851Z,75.58
2023-01-27T22:02:16.255Z,75.76
2023-01-27T22:04:46.400Z,75.55
2023-01-27T22:07:14.919Z,76.19
2023-01-27T22:09:41.719Z,75.65
2023-01-27T22:12:10.797Z,75.87
2023-01-27T22:14:37.711Z,75.91
2023-01-27T22:17:04.481Z,75.78
2023-01-27T22:19:30.978Z,75.85
2023-01-27T22:21:57.557Z,75.80
2023-01-27T22:24:24.533Z,75.53
2023-01-27T22:26:51.491Z,75.70
2023-01-27T22:29:18.002Z,75.20
2023-01-27T22:31:44.560Z,75.26
2023-01-27T22:34:11.301Z,75.26
2023-01-27T22:36:37.914Z,75.33
2023-01-27T22:39:04.964Z,75.33
2023-01-27T22:41:32.108Z,75.23
2023-01-27T22:43:58.739Z,75.46
2023-01-27T22:46:25.342Z,75.32
2023-01-27T22:48:51.864Z,75.29
2023-01-27T22:51:18.493Z,75.59
2023-01-27T22:53:46.316Z,75.75
2023-01-27T22:56:12.823Z,75.58
2023-01-27T22:58:39.304Z,75.41
2023-01-27T23:01:07.215Z,75.37
2023-01-27T23:03:34.263Z,75.30
2023-01-27T23:06:08.642Z,75.01
2023-01-27T23:08:35.930Z,74.83
2023-01-27T23:11:04.370Z,75.01
2023-01-27T23:13:31.757Z,75.04
2023-01-27T23:15:58.348Z,74.66
2023-01-27T23:18:25.268Z,74.64
2023-01-27T23:20:51.996Z,74.46
2023-01-27T23:23:19.340Z,74.68
2023-01-27T23:25:47.587Z,74.37
2023-01-27T23:28:16.509Z,74.87
2023-01-27T23:30:48.668Z,74.43
2023-01-27T23:33:17.138Z,74.07
2023-01-27T23:35:44.345Z,74.25
2023-01-27T23:38:26.388Z,74.36
2023-01-27T23:41:05.970Z,73.93
2023-01-27T23:43:32.556Z,73.67
2023-01-27T23:45:59.605Z,73.61
2023-01-27T23:48:27.850Z,73.53
2023-01-27T23:50:54.998Z,73.69
2023-01-27T23:53:21.609Z,73.77
2023-01-27T23:55:56.089Z,73.14
2023-01-27T23:58:22.825Z,73.23
